createdAt,value
2023-04-29T00:01:36.986Z,13.07
2023-04-29T00:04:04.907Z,12.00
2023-04-29T00:06:32.393Z,15.00
2023-04-29T00:08:59.782Z,12.90
2023-04-29T00:11:27.097Z,13.75
2023-04-29T00:13:54.404Z,16.38
2023-04-29T00:16:22.281Z,12.73
2023-04-29T00:18:49.629Z,12.77
2023-04-29T00:21:16.883Z,19.90
2023-04-29T00:23:44.749Z,19.75
2023-04-29T00:26:12.174Z,11.35
2023-04-29T00:28:42.707Z,16.08
2023-04-29T00:31:10.749Z,24.38
2023-04-29T00:33:38.341Z,16.02
2023-04-29T00:36:05.838Z,15.13
2023-04-29T00:38:33.189Z,13.20
2023-04-29T00:41:01.266Z,17.65
2023-04-29T00:43:29.057Z,15.35
2023-04-29T00:46:04.956Z,16.95
2023-04-29T00:48:33.621Z,16.85
2023-04-29T00:51:01.062Z,15.30
2023-04-29T00:53:28.699Z,18.80
2023-04-29T00:55:56.262Z,12.60
2023-04-29T00:58:30.239Z,17.48
2023-04-29T01:00:58.634Z,14.15
2023-04-29T01:03:28.631Z,15.82
2023-04-29T01:06:21.218Z,15.07
2023-04-29T01:09:06.064Z,15.18
2023-04-29T01:12:10.974Z,12.52
2023-04-29T01:14:39.676Z,13.07
2023-04-29T01:17:12.012Z,15.90
2023-04-29T01:19:46.746Z,19.58
2023-04-29T01:22:15.479Z,15.82
2023-04-29T01:24:43.329Z,16.27
2023-04-29T01:27:30.678Z,13.57
2023-04-29T01:30:42.081Z,18.52
2023-04-29T01:33:44.301Z,16.27
2023-04-29T01:36:19.030Z,13.70
2023-04-29T01:39:05.353Z,16.80
2023-04-29T01:41:45.158Z,15.60
2023-04-29T01:44:22.142Z,19.15
2023-04-29T01:46:52.768Z,11.65
2023-04-29T01:51:49.225Z,14.90
2023-04-29T01:54:17.236Z,22.73
2023-04-29T01:56:46.008Z,21.38
2023-04-29T01:59:31.699Z,16.33
2023-04-29T02:02:11.693Z,22.83
2023-04-29T02:04:48.791Z,19.27
2023-04-29T02:07:17.095Z,18.00
2023-04-29T02:09:46.674Z,18.67
2023-04-29T02:12:14.649Z,20.40
2023-04-29T02:14:42.852Z,17.25
2023-04-29T02:17:10.890Z,18.92
2023-04-29T02:19:38.422Z,14.73
2023-04-29T02:22:06.189Z,13.77
2023-04-29T02:24:33.702Z,17.08
2023-04-29T02:27:01.118Z,17.67
2023-04-29T02:29:31.076Z,14.77
2023-04-29T02:31:59.903Z,15.45
2023-04-29T02:34:27.965Z,16.10
2023-04-29T02:36:55.373Z,13.68
2023-04-29T02:39:22.857Z,19.40
2023-04-29T02:41:50.343Z,17.88
2023-04-29T02:44:17.879Z,17.27
2023-04-29T02:46:46.297Z,20.05
2023-04-29T02:49:32.473Z,16.55
2023-04-29T02:52:19.018Z,19.00
2023-04-29T02:55:05.568Z,19.75
2023-04-29T02:57:33.954Z,19.13
2023-04-29T03:00:02.092Z,19.00
2023-04-29T03:02:30.106Z,13.55
2023-04-29T03:04:59.628Z,22.38
2023-04-29T03:07:28.647Z,19.80
2023-04-29T03:09:56.358Z,15.05
2023-04-29T03:12:24.351Z,19.77
2023-04-29T03:14:54.836Z,16.73
2023-04-29T03:17:23.345Z,15.43
2023-04-29T03:19:51.317Z,18.10
2023-04-29T03:22:19.036Z,20.92
2023-04-29T03:24:46.786Z,17.95
2023-04-29T03:27:14.183Z,18.05
2023-04-29T03:29:41.640Z,20.85
2023-04-29T03:32:09.596Z,18.20
2023-04-29T03:34:37.847Z,20.48
2023-04-29T03:37:25.007Z,17.20
2023-04-29T03:39:59.969Z,19.45
2023-04-29T03:42:27.386Z,26.58
2023-04-29T03:44:55.191Z,17.05
2023-04-29T03:47:22.588Z,19.75
2023-04-29T03:49:50.893Z,18.55
2023-04-29T03:52:18.567Z,21.50
2023-04-29T03:54:49.958Z,18.95
2023-04-29T03:57:18.305Z,17.25
2023-04-29T03:59:50.141Z,16.70
2023-04-29T04:02:17.916Z,13.63
2023-04-29T04:04:46.105Z,19.42
2023-04-29T04:07:13.805Z,14.80
2023-04-29T04:10:02.098Z,15.75
2023-04-29T04:12:29.919Z,22.42
2023-04-29T04:14:57.553Z,19.88
2023-04-29T04:17:25.442Z,17.67
2023-04-29T04:19:53.297Z,18.25
2023-04-29T04:22:21.080Z,22.10
2023-04-29T04:25:05.603Z,20.73
2023-04-29T04:27:33.654Z,19.75
2023-04-29T04:30:07.225Z,20.50
2023-04-29T04:32:34.640Z,17.70
2023-04-29T04:35:02.647Z,21.35
2023-04-29T04:37:30.263Z,18.85
2023-04-29T04:40:00.212Z,20.35
2023-04-29T04:42:28.454Z,19.77
2023-04-29T04:44:58.618Z,24.25
2023-04-29T04:47:42.400Z,17.40
2023-04-29T04:50:21.926Z,19.63
2023-04-29T04:52:50.963Z,20.40
2023-04-29T04:55:37.950Z,17.70
2023-04-29T04:58:06.467Z,19.02
2023-04-29T05:00:34.319Z,21.35
2023-04-29T05:03:02.070Z,24.92
2023-04-29T05:05:29.893Z,27.55
2023-04-29T05:07:57.296Z,25.95
2023-04-29T05:10:33.333Z,26.45
2023-04-29T05:13:01.991Z,23.85
2023-04-29T05:15:29.517Z,19.52
2023-04-29T05:18:00.681Z,29.90
2023-04-29T05:20:28.627Z,23.80
2023-04-29T05:22:56.869Z,26.15
2023-04-29T05:25:26.215Z,24.85
2023-04-29T05:27:55.301Z,31.92
2023-04-29T05:30:23.697Z,24.13
2023-04-29T05:32:51.672Z,35.15
2023-04-29T05:35:22.105Z,36.85
2023-04-29T05:37:49.729Z,25.95
2023-04-29T05:40:42.427Z,27.38
2023-04-29T05:43:27.941Z,27.83
2023-04-29T05:45:57.575Z,28.02
2023-04-29T05:48:25.244Z,28.27
2023-04-29T05:50:53.906Z,25.42
2023-04-29T05:53:22.282Z,28.83
2023-04-29T05:55:51.508Z,23.15
2023-04-29T05:58:21.035Z,33.88
2023-04-29T06:00:49.707Z,29.70
2023-04-29T06:03:22.233Z,34.42
2023-04-29T06:05:57.108Z,28.75
2023-04-29T06:08:51.410Z,31.10
2023-04-29T06:11:23.841Z,29.00
2023-04-29T06:13:51.270Z,32.22
2023-04-29T06:16:19.355Z,29.35
2023-04-29T06:18:46.819Z,31.80
2023-04-29T06:21:16.284Z,34.08
2023-04-29T06:23:43.890Z,28.80
2023-04-29T06:26:16.768Z,33.40
2023-04-29T06:28:44.187Z,28.67
2023-04-29T06:31:12.658Z,26.73
2023-04-29T06:33:40.266Z,33.25
2023-04-29T06:36:08.009Z,34.55
2023-04-29T06:38:58.120Z,28.25
2023-04-29T06:41:49.499Z,24.42
2023-04-29T06:44:35.749Z,33.22
2023-04-29T06:47:36.478Z,24.63
2023-04-29T06:50:14.033Z,29.85
2023-04-29T06:52:42.363Z,30.73
2023-04-29T06:55:11.648Z,30.25
2023-04-29T06:57:42.826Z,32.30
2023-04-29T07:00:10.677Z,28.63
2023-04-29T07:02:39.552Z,31.42
2023-04-29T07:05:08.385Z,31.38
2023-04-29T07:07:36.134Z,35.05
2023-04-29T07:10:04.158Z,32.10
2023-04-29T07:12:31.532Z,35.30
2023-04-29T07:14:59.785Z,36.13
2023-04-29T07:17:31.558Z,39.63
2023-04-29T07:20:00.104Z,36.30
2023-04-29T07:22:28.326Z,42.45
2023-04-29T07:24:56.989Z,36.60
2023-04-29T07:27:25.377Z,39.45
2023-04-29T07:29:53.273Z,33.33
2023-04-29T07:32:21.361Z,25.73
2023-04-29T07:34:49.657Z,41.88
2023-04-29T07:37:17.572Z,29.35
2023-04-29T07:39:45.542Z,30.10
2023-04-29T07:42:13.520Z,33.92
2023-04-29T07:44:42.238Z,31.95
2023-04-29T07:47:09.953Z,32.97
2023-04-29T07:49:38.087Z,31.48
2023-04-29T07:52:06.107Z,31.67
2023-04-29T07:54:33.756Z,33.50
2023-04-29T07:57:03.337Z,29.63
2023-04-29T07:59:31.970Z,32.95
2023-04-29T08:01:59.734Z,31.20
2023-04-29T08:04:27.733Z,26.52
2023-04-29T08:07:01.075Z,33.33
2023-04-29T08:09:29.299Z,23.80
2023-04-29T08:11:56.615Z,31.25
2023-04-29T08:14:24.568Z,28.30
2023-04-29T08:16:51.897Z,31.27
2023-04-29T08:19:19.230Z,34.25
2023-04-29T08:21:47.736Z,32.17
2023-04-29T08:24:15.561Z,30.60
2023-04-29T08:26:42.980Z,30.88
2023-04-29T08:29:10.927Z,28.98
2023-04-29T08:31:38.787Z,25.63
2023-04-29T08:34:06.635Z,33.13
2023-04-29T08:36:34.609Z,27.85
2023-04-29T08:39:02.661Z,27.98
2023-04-29T08:41:32.815Z,32.25
2023-04-29T08:44:01.091Z,29.85
2023-04-29T08:46:29.758Z,28.48
2023-04-29T08:48:57.826Z,26.90
2023-04-29T08:51:25.812Z,33.45
2023-04-29T08:53:53.970Z,27.92
2023-04-29T08:56:23.181Z,28.73
2023-04-29T08:58:54.803Z,24.85
2023-04-29T09:01:24.792Z,24.75
2023-04-29T09:04:20.853Z,22.95
2023-04-29T09:06:48.758Z,23.15
2023-04-29T09:09:19.631Z,20.92
2023-04-29T09:11:48.482Z,24.42
2023-04-29T09:14:16.575Z,25.30
2023-04-29T09:16:47.155Z,22.60
2023-04-29T09:19:32.479Z,22.03
2023-04-29T09:22:01.600Z,20.05
2023-04-29T09:24:31.008Z,25.73
2023-04-29T09:26:59.301Z,21.15
2023-04-29T09:29:26.657Z,22.30
2023-04-29T09:31:54.085Z,21.98
2023-04-29T09:34:33.717Z,23.33
2023-04-29T09:37:01.074Z,23.70
2023-04-29T09:39:39.129Z,22.63
2023-04-29T09:42:08.001Z,16.88
2023-04-29T09:44:36.092Z,17.80
2023-04-29T09:47:04.677Z,21.13
2023-04-29T09:49:41.057Z,24.17
2023-04-29T09:52:10.674Z,17.63
2023-04-29T09:54:41.044Z,19.02
2023-04-29T09:57:09.750Z,16.42
2023-04-29T09:59:39.735Z,22.20
2023-04-29T10:02:20.953Z,16.52
2023-04-29T10:04:54.798Z,15.02
2023-04-29T10:07:22.659Z,17.05
2023-04-29T10:09:50.820Z,19.73
2023-04-29T10:12:20.399Z,16.10
2023-04-29T10:14:55.814Z,13.45
2023-04-29T10:17:46.035Z,17.75
2023-04-29T10:20:16.556Z,18.83
2023-04-29T10:22:52.132Z,22.70
2023-04-29T10:25:21.849Z,18.60
2023-04-29T10:27:53.548Z,16.52
2023-04-29T10:30:22.498Z,17.00
2023-04-29T10:32:52.709Z,22.10
2023-04-29T10:35:25.849Z,20.40
2023-04-29T10:37:54.689Z,14.93
2023-04-29T10:40:28.931Z,18.98
2023-04-29T10:42:57.794Z,15.00
2023-04-29T10:45:29.969Z,18.13
2023-04-29T10:48:06.779Z,16.00
2023-04-29T10:50:49.321Z,18.88
2023-04-29T10:53:22.300Z,23.10
2023-04-29T10:55:56.570Z,16.80
2023-04-29T10:58:44.179Z,18.35
2023-04-29T11:01:17.110Z,19.08
2023-04-29T11:03:49.548Z,15.05
2023-04-29T11:06:17.131Z,22.40
2023-04-29T11:08:44.905Z,17.23
2023-04-29T11:11:16.090Z,18.40
2023-04-29T11:13:47.037Z,16.20
2023-04-29T11:16:14.495Z,17.40
2023-04-29T11:19:17.872Z,17.67
2023-04-29T11:21:47.315Z,15.68
2023-04-29T11:24:16.230Z,18.13
2023-04-29T11:26:44.420Z,16.17
2023-04-29T11:29:12.715Z,20.85
2023-04-29T11:31:40.961Z,20.33
2023-04-29T11:34:08.495Z,16.20
2023-04-29T11:36:36.661Z,18.08
2023-04-29T11:39:04.868Z,18.25
2023-04-29T11:41:32.388Z,19.50
2023-04-29T11:44:01.318Z,18.38
2023-04-29T11:46:31.906Z,19.40
2023-04-29T11:49:02.061Z,17.87
2023-04-29T11:51:29.644Z,17.38
2023-04-29T11:53:58.081Z,17.13
2023-04-29T11:56:25.857Z,17.48
2023-04-29T11:58:58.394Z,14.23
2023-04-29T12:01:27.125Z,16.25
2023-04-29T12:04:00.030Z,13.85
2023-04-29T12:06:30.254Z,18.90
2023-04-29T12:09:01.740Z,16.83
2023-04-29T12:13:58.086Z,16.95
2023-04-29T12:16:25.733Z,14.98
2023-04-29T12:18:53.699Z,16.60
2023-04-29T12:21:24.663Z,13.65
2023-04-29T12:23:52.560Z,11.48
2023-04-29T12:26:24.883Z,16.33
2023-04-29T12:28:55.590Z,16.50
2023-04-29T12:31:24.273Z,14.90
2023-04-29T12:33:55.434Z,15.60
2023-04-29T12:36:23.803Z,14.82
2023-04-29T12:38:54.645Z,15.85
2023-04-29T12:41:40.867Z,18.60
2023-04-29T12:44:12.640Z,16.63
2023-04-29T12:46:41.760Z,16.55
2023-04-29T12:49:09.488Z,16.63
2023-04-29T12:51:37.001Z,16.15
2023-04-29T12:54:07.201Z,17.63
2023-04-29T12:56:34.658Z,15.30
2023-04-29T12:59:10.125Z,16.75
2023-04-29T13:01:38.978Z,19.33
2023-04-29T13:04:09.155Z,15.52
2023-04-29T13:06:39.511Z,14.82
2023-04-29T13:09:16.997Z,16.40
2023-04-29T13:11:47.379Z,17.42
2023-04-29T13:14:15.747Z,16.38
2023-04-29T13:16:43.718Z,21.30
2023-04-29T13:19:29.498Z,15.10
2023-04-29T13:21:59.141Z,21.17
2023-04-29T13:24:27.221Z,20.77
2023-04-29T13:26:54.756Z,15.68
2023-04-29T13:29:23.992Z,16.15
2023-04-29T13:31:51.920Z,16.85
2023-04-29T13:34:20.414Z,29.10
2023-04-29T13:36:48.589Z,18.80
2023-04-29T13:39:17.455Z,12.68
2023-04-29T13:41:46.400Z,18.38
2023-04-29T13:46:47.446Z,15.82
2023-04-29T13:52:30.580Z,12.73
2023-04-29T13:57:55.095Z,10.48
2023-04-29T13:59:55.043Z,18.55
2023-04-29T14:02:25.386Z,22.40
2023-04-29T14:04:54.826Z,13.23
2023-04-29T14:07:23.289Z,15.95
2023-04-29T14:09:51.873Z,16.35
2023-04-29T14:12:19.196Z,16.20
2023-04-29T14:14:47.285Z,42.67
2023-04-29T14:17:14.636Z,47.72
2023-04-29T14:19:42.097Z,23.02
2023-04-29T14:22:09.460Z,20.55
2023-04-29T14:24:37.094Z,15.93
2023-04-29T14:27:05.840Z,17.77
2023-04-29T14:29:33.631Z,19.00
2023-04-29T14:32:01.334Z,17.00
2023-04-29T14:34:29.808Z,18.02
2023-04-29T14:36:59.176Z,18.73
2023-04-29T14:39:27.104Z,18.45
2023-04-29T14:41:54.585Z,27.25
2023-04-29T14:44:22.367Z,26.55
2023-04-29T14:46:50.529Z,30.23
2023-04-29T14:49:17.874Z,31.98
2023-04-29T14:51:45.794Z,26.08
2023-04-29T14:54:13.361Z,27.25
2023-04-29T14:56:41.250Z,23.65
2023-04-29T14:59:09.803Z,25.10
2023-04-29T15:01:39.712Z,23.75
2023-04-29T15:04:07.970Z,27.73
2023-04-29T15:06:36.064Z,28.48
2023-04-29T15:09:03.405Z,30.73
2023-04-29T15:11:30.841Z,25.65
2023-04-29T15:13:58.917Z,26.95
2023-04-29T15:16:26.906Z,26.20
2023-04-29T15:18:54.313Z,37.95
2023-04-29T15:21:22.141Z,31.20
2023-04-29T15:23:49.545Z,24.02
2023-04-29T15:26:17.474Z,26.23
2023-04-29T15:28:45.876Z,28.83
2023-04-29T15:31:13.633Z,26.67
2023-04-29T15:33:41.197Z,27.83
2023-04-29T15:36:08.602Z,25.48
2023-04-29T15:38:36.022Z,27.92
2023-04-29T15:41:04.031Z,31.63
2023-04-29T15:43:32.661Z,25.38
2023-04-29T15:46:00.733Z,23.10
2023-04-29T15:48:28.147Z,23.63
2023-04-29T15:50:55.936Z,28.88
2023-04-29T15:53:23.810Z,23.52
2023-04-29T15:55:51.122Z,25.65
2023-04-29T15:58:18.670Z,19.35
2023-04-29T16:00:46.761Z,22.33
2023-04-29T16:03:15.221Z,21.38
2023-04-29T16:05:42.687Z,22.90
2023-04-29T16:08:10.479Z,20.13
2023-04-29T16:10:37.934Z,27.60
2023-04-29T16:13:05.219Z,25.55
2023-04-29T16:15:33.188Z,21.90
2023-04-29T16:18:01.704Z,23.88
2023-04-29T16:20:29.536Z,21.30
2023-04-29T16:22:57.122Z,19.60
2023-04-29T16:25:24.477Z,18.85
2023-04-29T16:27:51.817Z,27.23
2023-04-29T16:30:19.636Z,20.00
2023-04-29T16:32:47.883Z,19.92
2023-04-29T16:35:16.618Z,16.40
2023-04-29T16:37:44.421Z,18.02
2023-04-29T16:40:12.253Z,19.73
2023-04-29T16:42:40.015Z,16.67
2023-04-29T16:45:08.160Z,17.92
2023-04-29T16:47:36.795Z,17.98
2023-04-29T16:50:08.161Z,19.65
2023-04-29T16:52:35.530Z,15.02
2023-04-29T16:55:03.810Z,17.17
2023-04-29T16:57:31.984Z,13.65
2023-04-29T16:59:59.740Z,19.13
2023-04-29T17:02:28.015Z,14.10
2023-04-29T17:04:55.905Z,11.88
2023-04-29T17:07:23.980Z,16.85
2023-04-29T17:09:52.147Z,20.17
2023-04-29T17:12:19.779Z,14.95
2023-04-29T17:14:48.347Z,17.85
2023-04-29T17:17:15.833Z,11.07
2023-04-29T17:19:43.614Z,18.55
2023-04-29T17:22:10.967Z,16.27
2023-04-29T17:24:38.345Z,14.25
2023-04-29T17:27:05.854Z,13.48
2023-04-29T17:29:33.976Z,14.82
2023-04-29T17:32:03.417Z,12.25
2023-04-29T17:34:31.147Z,14.48
2023-04-29T17:36:58.649Z,13.18
2023-04-29T17:39:26.271Z,14.07
2023-04-29T17:41:54.029Z,17.75
2023-04-29T17:44:23.381Z,20.77
2023-04-29T17:46:51.124Z,10.68
2023-04-29T17:49:18.511Z,17.83
2023-04-29T17:51:45.819Z,14.88
2023-04-29T17:54:13.144Z,19.38
2023-04-29T17:56:40.758Z,12.20
2023-04-29T17:59:08.692Z,13.07
2023-04-29T18:01:36.546Z,16.63
2023-04-29T18:04:04.849Z,12.13
2023-04-29T18:06:32.368Z,14.77
2023-04-29T18:08:59.738Z,15.25
2023-04-29T18:11:27.269Z,13.15
2023-04-29T18:13:54.588Z,15.18
2023-04-29T18:16:22.226Z,13.85
2023-04-29T18:18:51.890Z,15.68
2023-04-29T18:21:29.354Z,13.48
2023-04-29T18:23:57.478Z,11.90
2023-04-29T18:26:25.425Z,13.32
2023-04-29T18:28:52.831Z,18.63
2023-04-29T18:31:20.389Z,13.88
2023-04-29T18:33:47.795Z,14.40
2023-04-29T18:36:16.190Z,14.00
2023-04-29T18:38:44.234Z,15.73
2023-04-29T18:41:12.094Z,17.85
2023-04-29T18:43:40.447Z,16.77
2023-04-29T18:46:08.243Z,16.45
2023-04-29T18:48:36.542Z,14.95
2023-04-29T18:51:05.954Z,13.65
2023-04-29T18:53:33.434Z,14.50
2023-04-29T18:56:00.721Z,13.85
2023-04-29T18:58:28.175Z,15.50
2023-04-29T19:00:57.689Z,17.77
2023-04-29T19:03:25.866Z,14.95
2023-04-29T19:05:53.203Z,16.58
2023-04-29T19:08:20.855Z,14.02
2023-04-29T19:10:48.756Z,14.52
2023-04-29T19:13:16.325Z,12.88
2023-04-29T19:15:44.105Z,15.55
2023-04-29T19:18:11.752Z,21.23
2023-04-29T19:20:41.252Z,14.38
2023-04-29T19:23:09.490Z,12.60
2023-04-29T19:25:37.257Z,20.92
2023-04-29T19:28:04.769Z,14.85
2023-04-29T19:30:33.468Z,12.88
2023-04-29T19:33:01.272Z,18.92
2023-04-29T19:35:28.700Z,17.02
2023-04-29T19:37:55.929Z,16.38
2023-04-29T19:40:23.229Z,14.88
2023-04-29T19:42:50.974Z,15.05
2023-04-29T19:45:18.318Z,14.40
2023-04-29T19:47:46.154Z,17.55
2023-04-29T19:50:13.511Z,15.98
2023-04-29T19:52:41.023Z,17.27
2023-04-29T19:55:09.109Z,18.05
2023-04-29T19:57:38.177Z,15.77
2023-04-29T20:00:07.201Z,18.35
2023-04-29T20:02:35.668Z,11.73
2023-04-29T20:05:03.198Z,15.50
2023-04-29T20:07:30.488Z,13.93
2023-04-29T20:09:57.807Z,16.40
2023-04-29T20:12:26.324Z,15.60
2023-04-29T20:14:54.069Z,16.95
2023-04-29T20:17:21.381Z,18.85
2023-04-29T20:19:48.969Z,14.90
2023-04-29T20:22:16.372Z,20.73
2023-04-29T20:24:43.699Z,18.08
2023-04-29T20:27:11.798Z,16.95
2023-04-29T20:29:39.447Z,18.63
2023-04-29T20:32:06.952Z,13.27
2023-04-29T20:34:34.498Z,19.15
2023-04-29T20:37:02.518Z,22.60
2023-04-29T20:39:30.938Z,17.08
2023-04-29T20:41:58.704Z,16.75
2023-04-29T20:44:26.397Z,23.67
2023-04-29T20:46:54.176Z,21.25
2023-04-29T20:49:21.730Z,16.35
2023-04-29T20:51:49.355Z,16.08
2023-04-29T20:54:17.522Z,14.10
2023-04-29T20:56:44.866Z,18.17
2023-04-29T20:59:12.317Z,16.58
2023-04-29T21:01:40.196Z,21.45
2023-04-29T21:04:08.228Z,15.50
2023-04-29T21:06:35.710Z,17.65
2023-04-29T21:09:03.490Z,25.42
2023-04-29T21:11:30.889Z,17.20
2023-04-29T21:13:58.927Z,18.95
2023-04-29T21:16:26.937Z,19.25
2023-04-29T21:18:55.956Z,15.98
2023-04-29T21:21:24.171Z,18.90
2023-04-29T21:23:51.708Z,18.50
2023-04-29T21:26:20.291Z,16.88
2023-04-29T21:28:48.090Z,22.35
2023-04-29T21:31:16.502Z,18.00
2023-04-29T21:33:45.320Z,20.67
2023-04-29T21:36:13.796Z,17.75
2023-04-29T21:38:42.808Z,22.92
2023-04-29T21:41:20.803Z,22.30
2023-04-29T21:43:49.530Z,25.10
2023-04-29T21:46:17.030Z,20.00
